Hlavní strana
METAR-TAF:

METAR-TAF

Letiště :

San José, Kostarika

zeměpisná šířka: 10-00N, zeměpisná délka: 084-13W, výška: 920 m

Aktuální stav počasí

Zpráva byla vytvořena před 39 minutami, v 03:00 UTC
Východní vítr 20 kt s nárazy do 32 kt
Teplota 21°C
Vlhkost vzduchu 64%
Tlak 1018 hPa
Viditelnost 10 km a více
Skoro jasno ve výšce 3000 ft
Oblačno až skoro zataženo ve výšce 16000 ft

METAR: MROC 210300Z 09020G32KT 9999 FEW030 BKN160 21/14 A3006 NOSIG

Čas: 21:39 (03:39 UTC)

Předpověď počasí

Zpráva byla vytvořena před 4 hodinami a 39 minutami, v 23:00 UTC
Předpověď platná od 21 v 00 UTC do 21 v 24 UTC
Východní vítr 15 kt
Viditelnost 10 km a více
Skoro jasno ve výšce 3500 ft
Dočasný
od 21 v 00 UTC do 21 v 24 UTC
Východní vítr 20 kt s nárazy do 30 kt

TAF: MROC 202300Z 2100/2124 10015KT 9999 FEW035 TX29/2119Z TN19/2110Z TEMPO 2100/2124 09020G30KT

Stav a předpovědi počasí z více než 4 000 letišť (zprávy METAR a TAF).

Červené a žluté tečky na mapě představují dostupné meteorologické stanice.

Když kurzor umístíte na tečku, zobrazí se název stanice.

Pak kliknutím zobrazíte stav a předpověď počasí.

Chcete-li změnit mapu, kliknutím na zelené tlačítko se znaménkem +mapu přiblížíte, kliknutím na zelené tlačítko se znaménkem – mapu oddálíte a kliknutím na zelené šipky přejdete na sousední mapy.


METAR-TAF: